createdAt,value
2018-05-16T00:01:52.477Z,4.57
2018-05-16T00:04:20.118Z,4.73
2018-05-16T00:06:47.741Z,4.90
2018-05-16T00:09:15.373Z,5.00
2018-05-16T00:11:43.002Z,4.57
2018-05-16T00:14:10.565Z,4.03
2018-05-16T00:16:38.197Z,4.30
2018-05-16T00:19:05.755Z,3.80
2018-05-16T00:21:33.360Z,4.60
2018-05-16T00:24:00.916Z,3.77
2018-05-16T00:26:28.481Z,4.43
2018-05-16T00:28:56.055Z,5.10
2018-05-16T00:31:23.709Z,4.40
2018-05-16T00:33:51.273Z,5.10
2018-05-16T00:36:18.829Z,4.50
2018-05-16T00:38:46.513Z,5.00
2018-05-16T00:41:14.073Z,4.50
2018-05-16T00:43:41.633Z,4.20
2018-05-16T00:46:09.246Z,5.27
2018-05-16T00:48:36.902Z,4.40
2018-05-16T00:51:16.377Z,4.40
2018-05-16T00:53:44.005Z,3.93
2018-05-16T00:56:11.684Z,4.07
2018-05-16T00:58:39.244Z,5.07
2018-05-16T01:01:06.781Z,4.87
2018-05-16T01:03:34.405Z,4.97
2018-05-16T01:06:01.965Z,3.90
2018-05-16T01:08:29.573Z,3.97
2018-05-16T01:10:57.197Z,4.20
2018-05-16T01:13:24.760Z,4.40
2018-05-16T01:15:52.393Z,4.93
2018-05-16T01:18:20.010Z,5.90
2018-05-16T01:20:47.641Z,4.23
2018-05-16T01:23:15.285Z,5.57
2018-05-16T01:25:42.849Z,5.37
2018-05-16T01:28:10.473Z,4.10
2018-05-16T01:30:38.206Z,4.30
2018-05-16T01:33:05.785Z,3.80
2018-05-16T01:35:33.340Z,4.47
2018-05-16T01:38:00.952Z,4.20
2018-05-16T01:40:28.508Z,3.90
2018-05-16T01:42:56.060Z,3.93
2018-05-16T01:45:23.641Z,4.00
2018-05-16T01:47:51.200Z,5.27
2018-05-16T01:50:18.901Z,3.97
2018-05-16T01:52:46.528Z,4.60
2018-05-16T01:55:14.140Z,4.20
2018-05-16T01:57:41.761Z,4.60
2018-05-16T02:00:09.320Z,4.10
2018-05-16T02:02:36.869Z,4.07
2018-05-16T02:05:04.470Z,4.40
2018-05-16T02:07:32.039Z,4.23
2018-05-16T02:09:59.661Z,4.33
2018-05-16T02:12:27.268Z,4.87
2018-05-16T02:14:54.860Z,5.47
2018-05-16T02:17:22.415Z,4.10
2018-05-16T02:19:49.985Z,5.70
2018-05-16T02:22:17.541Z,4.07
2018-05-16T02:24:45.105Z,4.63
2018-05-16T02:27:12.664Z,4.27
2018-05-16T02:29:40.291Z,4.40
2018-05-16T02:32:07.857Z,5.03
2018-05-16T02:34:35.413Z,4.30
2018-05-16T02:37:03.046Z,4.27
2018-05-16T02:39:30.646Z,4.07
2018-05-16T02:41:58.215Z,4.80
2018-05-16T02:44:25.772Z,4.83
2018-05-16T02:46:53.382Z,4.90
2018-05-16T02:49:21.001Z,4.93
2018-05-16T02:51:48.575Z,4.20
2018-05-16T02:54:16.287Z,4.73
2018-05-16T02:56:43.869Z,5.33
2018-05-16T02:59:11.498Z,4.80
2018-05-16T03:01:39.062Z,6.33
2018-05-16T03:04:06.749Z,6.50
2018-05-16T03:06:34.382Z,6.30
2018-05-16T03:09:01.955Z,5.47
2018-05-16T03:11:29.597Z,5.30
2018-05-16T03:13:57.190Z,4.90
2018-05-16T03:16:24.758Z,6.97
2018-05-16T03:18:52.569Z,3.90
2018-05-16T03:21:20.196Z,4.93
2018-05-16T03:23:47.756Z,3.90
2018-05-16T03:26:15.316Z,3.30
2018-05-16T03:28:42.876Z,3.00
2018-05-16T03:31:10.445Z,4.20
2018-05-16T03:33:38.008Z,4.10
2018-05-16T03:36:05.569Z,4.17
2018-05-16T03:38:33.197Z,4.60
2018-05-16T03:41:00.832Z,4.50
2018-05-16T03:43:28.459Z,4.20
2018-05-16T03:45:56.029Z,4.63
2018-05-16T03:48:23.657Z,6.20
2018-05-16T03:50:51.225Z,5.23
2018-05-16T03:53:18.784Z,5.50
2018-05-16T03:55:46.464Z,4.23
2018-05-16T03:58:25.929Z,4.60
2018-05-16T04:01:05.319Z,5.97
2018-05-16T04:03:44.765Z,7.83
2018-05-16T04:06:12.332Z,4.77
2018-05-16T04:08:39.892Z,4.10
2018-05-16T04:11:07.562Z,5.67
2018-05-16T04:13:35.248Z,4.70
2018-05-16T04:16:02.723Z,4.67
2018-05-16T04:18:30.400Z,4.70
2018-05-16T04:20:58.895Z,5.40
2018-05-16T04:23:26.461Z,4.90
2018-05-16T04:25:54.868Z,4.37
2018-05-16T04:28:22.489Z,3.80
2018-05-16T04:30:50.065Z,4.10
2018-05-16T04:33:17.621Z,4.80
2018-05-16T04:35:45.192Z,6.40
2018-05-16T04:38:12.801Z,8.20
2018-05-16T04:40:40.351Z,4.73
2018-05-16T04:43:07.981Z,4.83
2018-05-16T04:45:35.601Z,3.90
2018-05-16T04:48:03.156Z,4.50
2018-05-16T04:50:30.717Z,4.33
2018-05-16T04:52:58.281Z,5.60
2018-05-16T04:55:25.852Z,4.83
2018-05-16T04:57:53.453Z,5.27
2018-05-16T05:00:21.064Z,4.93
2018-05-16T05:02:48.628Z,4.80
2018-05-16T05:05:16.198Z,4.90
2018-05-16T05:07:43.825Z,5.70
2018-05-16T05:10:11.397Z,4.57
2018-05-16T05:12:39.065Z,4.67
2018-05-16T05:15:06.625Z,4.27
2018-05-16T05:17:34.189Z,4.30
2018-05-16T05:20:01.761Z,4.10
2018-05-16T05:22:29.325Z,4.30
2018-05-16T05:24:56.935Z,4.93
2018-05-16T05:27:24.500Z,4.63
2018-05-16T05:29:52.102Z,3.63
2018-05-16T05:32:19.693Z,3.87
2018-05-16T05:34:47.233Z,3.37
2018-05-16T05:37:14.856Z,2.90
2018-05-16T05:39:42.412Z,3.30
2018-05-16T05:42:10.089Z,3.10
2018-05-16T05:44:37.657Z,3.20
2018-05-16T05:47:05.212Z,2.90
2018-05-16T05:49:32.842Z,3.30
2018-05-16T05:52:00.405Z,3.73
2018-05-16T05:54:28.025Z,3.23
2018-05-16T05:56:55.630Z,3.00
2018-05-16T05:59:23.188Z,3.07
2018-05-16T06:01:50.860Z,3.27
2018-05-16T06:04:18.491Z,2.37
2018-05-16T06:06:46.052Z,3.40
2018-05-16T06:09:13.642Z,2.37
2018-05-16T06:11:41.204Z,2.40
2018-05-16T06:14:08.985Z,2.40
2018-05-16T06:16:36.537Z,2.17
2018-05-16T06:19:04.253Z,1.73
2018-05-16T06:21:31.820Z,2.17
2018-05-16T06:23:59.386Z,2.50
2018-05-16T06:26:27.088Z,1.83
2018-05-16T06:28:54.648Z,2.50
2018-05-16T06:31:22.207Z,2.10
2018-05-16T06:33:49.792Z,1.90
2018-05-16T06:36:17.358Z,1.87
2018-05-16T06:38:44.963Z,2.97
2018-05-16T06:41:12.516Z,2.53
2018-05-16T06:43:40.097Z,1.83
2018-05-16T06:46:07.655Z,2.47
2018-05-16T06:48:35.213Z,1.90
2018-05-16T06:51:02.845Z,2.80
2018-05-16T06:53:30.400Z,2.17
2018-05-16T06:55:57.972Z,2.63
2018-05-16T06:58:25.592Z,2.33
2018-05-16T07:00:53.156Z,2.57
2018-05-16T07:03:20.721Z,2.30
2018-05-16T07:05:48.316Z,1.77
2018-05-16T07:08:15.868Z,1.73
2018-05-16T07:10:43.456Z,1.73
2018-05-16T07:13:11.040Z,2.37
2018-05-16T07:15:38.618Z,2.10
2018-05-16T07:18:06.184Z,2.00
2018-05-16T07:20:33.739Z,2.10
2018-05-16T07:23:01.292Z,2.00
2018-05-16T07:25:28.840Z,2.23
2018-05-16T07:27:56.612Z,2.40
2018-05-16T07:30:24.180Z,1.93
2018-05-16T07:32:51.736Z,2.17
2018-05-16T07:35:19.300Z,1.97
2018-05-16T07:37:46.856Z,2.17
2018-05-16T07:40:14.420Z,1.90
2018-05-16T07:42:42.028Z,2.20
2018-05-16T07:45:09.624Z,2.83
2018-05-16T07:47:37.252Z,2.67
2018-05-16T07:50:04.840Z,2.60
2018-05-16T07:52:32.409Z,1.80
2018-05-16T07:54:59.965Z,2.40
2018-05-16T07:57:27.536Z,1.93
2018-05-16T07:59:55.101Z,1.80
2018-05-16T08:02:22.691Z,1.87
2018-05-16T08:04:50.248Z,2.20
2018-05-16T08:07:17.810Z,1.83
2018-05-16T08:09:45.380Z,2.10
2018-05-16T08:12:12.985Z,1.83
2018-05-16T08:14:40.537Z,2.10
2018-05-16T08:17:08.079Z,2.07
2018-05-16T08:19:35.650Z,2.03
2018-05-16T08:22:03.200Z,2.83
2018-05-16T08:24:30.757Z,2.10
2018-05-16T08:26:58.320Z,2.30
2018-05-16T08:29:25.880Z,2.53
2018-05-16T08:31:53.459Z,2.53
2018-05-16T08:34:21.037Z,2.33
2018-05-16T08:36:48.644Z,2.13
2018-05-16T08:39:16.201Z,1.90
2018-05-16T08:41:43.782Z,2.13
2018-05-16T08:44:11.361Z,2.00
2018-05-16T08:46:38.933Z,2.33
2018-05-16T08:49:06.504Z,1.97
2018-05-16T08:51:34.074Z,1.43
2018-05-16T08:54:01.680Z,2.27
2018-05-16T08:56:29.240Z,2.27
2018-05-16T08:58:56.800Z,2.70
2018-05-16T09:01:24.377Z,2.13
2018-05-16T09:03:52.270Z,2.20
2018-05-16T09:06:19.836Z,2.30
2018-05-16T09:08:47.396Z,2.00
2018-05-16T09:11:15.001Z,2.30
2018-05-16T09:13:42.568Z,2.67
2018-05-16T09:16:10.109Z,1.67
2018-05-16T09:18:37.685Z,2.03
2018-05-16T09:21:05.245Z,1.87
2018-05-16T09:23:32.812Z,2.07
2018-05-16T09:26:00.368Z,2.00
2018-05-16T09:28:27.954Z,2.60
2018-05-16T09:30:55.504Z,2.30
2018-05-16T09:33:23.060Z,2.67
2018-05-16T09:35:50.639Z,2.27
2018-05-16T09:38:18.206Z,2.20
2018-05-16T09:40:45.781Z,2.10
2018-05-16T09:43:13.351Z,1.97
2018-05-16T09:45:40.979Z,2.40
2018-05-16T09:48:08.541Z,1.80
2018-05-16T09:50:36.156Z,2.10
2018-05-16T09:53:03.720Z,2.37
2018-05-16T09:55:31.372Z,2.07
2018-05-16T09:57:59.034Z,1.63
2018-05-16T10:00:30.562Z,1.57
2018-05-16T10:02:58.173Z,2.07
2018-05-16T10:05:25.728Z,1.93
2018-05-16T10:07:53.288Z,1.73
2018-05-16T10:10:21.007Z,1.67
2018-05-16T10:12:48.563Z,1.83
2018-05-16T10:15:16.157Z,1.77
2018-05-16T10:17:43.727Z,2.03
2018-05-16T10:20:11.375Z,1.40
2018-05-16T10:22:38.879Z,1.70
2018-05-16T10:25:06.437Z,1.90
2018-05-16T10:27:34.035Z,2.23
2018-05-16T10:30:01.597Z,1.80
2018-05-16T10:32:29.148Z,1.57
2018-05-16T10:34:56.707Z,1.97
2018-05-16T10:37:24.276Z,1.53
2018-05-16T10:39:51.869Z,2.07
2018-05-16T10:42:19.424Z,1.50
2018-05-16T10:44:46.989Z,2.27
2018-05-16T10:47:14.560Z,2.03
2018-05-16T10:49:42.112Z,1.60
2018-05-16T10:52:09.721Z,1.90
2018-05-16T10:54:38.224Z,1.70
2018-05-16T10:57:06.569Z,2.07
2018-05-16T10:59:34.138Z,1.70
2018-05-16T11:02:01.696Z,2.47
2018-05-16T11:04:29.293Z,2.20
2018-05-16T11:06:56.874Z,2.10
2018-05-16T11:09:24.457Z,2.00
2018-05-16T11:11:52.020Z,1.60
2018-05-16T11:14:19.577Z,2.00
2018-05-16T11:16:47.175Z,1.90
2018-05-16T11:19:14.741Z,2.00
2018-05-16T11:21:42.300Z,1.70
2018-05-16T11:24:09.868Z,1.80
2018-05-16T11:26:37.420Z,3.10
2018-05-16T11:29:05.021Z,1.87
2018-05-16T11:31:32.561Z,2.00
2018-05-16T11:34:00.125Z,1.60
2018-05-16T11:36:27.701Z,1.60
2018-05-16T11:38:55.321Z,1.73
2018-05-16T11:41:22.933Z,1.70
2018-05-16T11:43:50.493Z,1.57
2018-05-16T11:46:18.113Z,1.90
2018-05-16T11:48:45.751Z,1.70
2018-05-16T11:51:13.248Z,2.20
2018-05-16T11:53:40.857Z,1.50
2018-05-16T11:56:08.543Z,1.50
2018-05-16T11:58:36.100Z,2.13
2018-05-16T12:01:03.697Z,1.40
2018-05-16T12:03:31.317Z,1.60
2018-05-16T12:05:58.933Z,1.65
2018-05-16T12:08:26.550Z,1.52
2018-05-16T12:10:54.149Z,1.70
2018-05-16T12:13:21.724Z,2.00
2018-05-16T12:15:49.281Z,1.40
2018-05-16T12:18:16.903Z,1.83
2018-05-16T12:20:44.536Z,1.80
2018-05-16T12:23:12.160Z,1.97
2018-05-16T12:25:39.797Z,1.87
2018-05-16T12:28:07.376Z,1.80
2018-05-16T12:30:35.064Z,1.30
2018-05-16T12:33:02.624Z,1.00
2018-05-16T12:35:30.389Z,1.50
2018-05-16T12:37:58.014Z,1.60
2018-05-16T12:40:25.572Z,1.20
2018-05-16T12:43:05.009Z,1.50
2018-05-16T12:45:32.626Z,1.20
2018-05-16T12:48:00.188Z,1.40
2018-05-16T12:50:27.753Z,1.27
2018-05-16T12:52:55.387Z,1.23
2018-05-16T12:55:23.013Z,1.20
2018-05-16T12:57:50.557Z,2.00
2018-05-16T13:00:18.124Z,1.10
2018-05-16T13:02:45.706Z,1.07
2018-05-16T13:05:13.325Z,1.40
2018-05-16T13:07:40.942Z,1.10
2018-05-16T13:10:08.482Z,1.20
2018-05-16T13:12:36.047Z,1.37
2018-05-16T13:15:03.639Z,1.30
2018-05-16T13:17:31.210Z,1.93
2018-05-16T13:19:58.907Z,1.40
2018-05-16T13:22:26.534Z,1.33
2018-05-16T13:24:54.163Z,1.80
2018-05-16T13:27:21.724Z,1.50
2018-05-16T13:29:49.344Z,1.83
2018-05-16T13:32:17.072Z,1.57
2018-05-16T13:34:44.654Z,1.50
2018-05-16T13:37:12.227Z,2.23
2018-05-16T13:39:39.813Z,1.80
2018-05-16T13:42:07.373Z,2.50
2018-05-16T13:44:35.045Z,3.47
2018-05-16T13:47:02.710Z,2.33
2018-05-16T13:49:30.333Z,2.33
2018-05-16T13:51:57.888Z,1.63
2018-05-16T13:54:25.445Z,1.80
2018-05-16T13:56:53.053Z,2.80
2018-05-16T13:59:20.669Z,2.07
2018-05-16T14:01:48.297Z,1.77
2018-05-16T14:04:15.930Z,1.57
2018-05-16T14:06:43.497Z,2.13
2018-05-16T14:09:11.045Z,2.20
2018-05-16T14:11:38.596Z,1.70
2018-05-16T14:14:06.269Z,1.70
2018-05-16T14:16:33.823Z,3.13
2018-05-16T14:19:01.369Z,2.40
2018-05-16T14:21:28.959Z,1.60
2018-05-16T14:23:56.581Z,1.80
2018-05-16T14:26:24.122Z,1.67
2018-05-16T14:28:51.741Z,1.37
2018-05-16T14:31:19.357Z,1.97
2018-05-16T14:33:46.912Z,1.60
2018-05-16T14:36:14.555Z,2.23
2018-05-16T14:38:42.157Z,1.87
2018-05-16T14:41:09.737Z,2.17
2018-05-16T14:43:37.313Z,2.10
2018-05-16T14:46:04.941Z,2.00
2018-05-16T14:48:32.616Z,2.37
2018-05-16T14:51:00.152Z,1.87
2018-05-16T14:53:27.708Z,2.10
2018-05-16T14:55:55.353Z,1.80
2018-05-16T14:58:22.983Z,2.90
2018-05-16T15:00:50.653Z,2.63
2018-05-16T15:03:18.273Z,2.53
2018-05-16T15:05:45.901Z,2.20
2018-05-16T15:08:13.471Z,2.50
2018-05-16T15:10:41.099Z,2.50
2018-05-16T15:13:08.677Z,2.27
2018-05-16T15:15:36.238Z,1.93
2018-05-16T15:18:03.818Z,2.07
2018-05-16T15:20:31.439Z,2.00
2018-05-16T15:22:59.080Z,2.97
2018-05-16T15:25:26.705Z,1.80
2018-05-16T15:27:54.276Z,1.90
2018-05-16T15:30:21.845Z,2.10
2018-05-16T15:32:49.413Z,2.20
2018-05-16T15:35:16.980Z,1.80
2018-05-16T15:37:44.541Z,2.30
2018-05-16T15:40:12.156Z,1.77
2018-05-16T15:42:39.775Z,1.83
2018-05-16T15:45:07.347Z,2.80
2018-05-16T15:47:35.001Z,2.63
2018-05-16T15:50:02.621Z,2.23
2018-05-16T15:52:30.204Z,2.10
2018-05-16T15:54:57.760Z,1.90
2018-05-16T15:57:25.445Z,1.80
2018-05-16T15:59:53.005Z,2.20
2018-05-16T16:02:20.568Z,1.70
2018-05-16T16:04:48.167Z,1.90
2018-05-16T16:07:15.774Z,1.73
2018-05-16T16:09:43.354Z,2.27
2018-05-16T16:12:10.938Z,2.13
2018-05-16T16:14:38.617Z,2.23
2018-05-16T16:17:06.321Z,3.03
2018-05-16T16:19:33.885Z,2.00
2018-05-16T16:22:01.586Z,1.77
2018-05-16T16:24:29.197Z,1.80
2018-05-16T16:26:56.770Z,2.03
2018-05-16T16:29:24.328Z,1.90
2018-05-16T16:31:51.955Z,1.90
2018-05-16T16:34:19.522Z,2.03
2018-05-16T16:36:47.081Z,2.30
2018-05-16T16:39:14.716Z,1.97
2018-05-16T16:41:42.289Z,1.90
2018-05-16T16:44:09.927Z,1.90
2018-05-16T16:46:37.549Z,2.50
2018-05-16T16:49:05.232Z,1.87
2018-05-16T16:51:32.885Z,1.90
2018-05-16T16:54:00.471Z,1.97
2018-05-16T16:56:28.668Z,1.90
2018-05-16T16:58:56.235Z,1.70
2018-05-16T17:01:23.797Z,2.20
2018-05-16T17:03:51.421Z,3.27
2018-05-16T17:06:19.034Z,2.07
2018-05-16T17:08:46.649Z,1.83
2018-05-16T17:11:14.274Z,2.80
2018-05-16T17:13:41.897Z,1.93
2018-05-16T17:16:09.504Z,1.70
2018-05-16T17:18:37.141Z,1.97
2018-05-16T17:21:04.762Z,2.50
2018-05-16T17:23:32.376Z,1.70
2018-05-16T17:25:59.951Z,2.00
2018-05-16T17:28:27.504Z,1.80
2018-05-16T17:30:55.146Z,1.73
2018-05-16T17:33:22.949Z,1.77
2018-05-16T17:35:50.573Z,1.40
2018-05-16T17:38:18.195Z,1.60
2018-05-16T17:40:45.811Z,1.60
2018-05-16T17:43:13.372Z,1.40
2018-05-16T17:45:40.932Z,1.40
2018-05-16T17:48:08.500Z,1.47
2018-05-16T17:50:36.059Z,1.83
2018-05-16T17:53:03.685Z,1.50
2018-05-16T17:55:31.945Z,1.90
2018-05-16T17:57:59.572Z,1.40
2018-05-16T18:00:27.138Z,1.90
2018-05-16T18:02:54.693Z,1.60
2018-05-16T18:05:22.332Z,2.10
2018-05-16T18:07:49.901Z,1.47
2018-05-16T18:10:17.528Z,1.20
2018-05-16T18:15:56.693Z,1.43
2018-05-16T18:18:24.245Z,1.20
2018-05-16T18:20:51.872Z,1.30
2018-05-16T18:23:19.437Z,1.70
2018-05-16T18:25:47.061Z,1.60
2018-05-16T18:28:14.607Z,1.40
2018-05-16T18:30:42.195Z,1.70
2018-05-16T18:33:09.773Z,2.00
2018-05-16T18:35:37.324Z,1.80
2018-05-16T18:38:04.953Z,1.93
2018-05-16T18:40:32.577Z,1.43
2018-05-16T18:43:00.149Z,1.73
2018-05-16T18:45:27.737Z,1.90
2018-05-16T18:47:55.377Z,1.90
2018-05-16T18:50:23.016Z,1.97
2018-05-16T18:52:50.604Z,2.03
2018-05-16T18:55:18.239Z,2.20
2018-05-16T18:57:45.865Z,2.30
2018-05-16T19:00:13.485Z,2.10
2018-05-16T19:02:41.056Z,2.13
2018-05-16T19:05:08.678Z,1.20
2018-05-16T19:07:36.246Z,1.70
2018-05-16T19:10:03.829Z,1.20
2018-05-16T19:12:31.462Z,2.17
2018-05-16T19:14:59.001Z,1.83
2018-05-16T19:17:26.621Z,1.97
2018-05-16T19:19:54.283Z,1.63
2018-05-16T19:22:21.815Z,1.80
2018-05-16T19:24:49.384Z,1.53
2018-05-16T19:27:18.313Z,1.53
2018-05-16T19:29:45.932Z,2.37
2018-05-16T19:32:13.633Z,1.40
2018-05-16T19:34:41.189Z,1.40
2018-05-16T19:37:08.789Z,1.20
2018-05-16T19:39:36.356Z,1.57
2018-05-16T19:42:03.934Z,1.60
2018-05-16T19:44:31.497Z,1.00
2018-05-16T19:46:59.118Z,1.83
2018-05-16T19:49:26.680Z,2.00
2018-05-16T19:51:54.312Z,1.83
2018-05-16T19:54:21.891Z,1.10
2018-05-16T19:56:49.514Z,1.37
2018-05-16T19:59:17.084Z,1.57
2018-05-16T20:01:44.701Z,1.60
2018-05-16T20:04:12.380Z,1.87
2018-05-16T20:06:40.000Z,1.47
2018-05-16T20:09:07.617Z,1.20
2018-05-16T20:11:35.188Z,1.60
2018-05-16T20:14:02.745Z,1.70
2018-05-16T20:16:30.360Z,1.67
2018-05-16T20:18:57.925Z,1.77
2018-05-16T20:21:25.546Z,1.20
2018-05-16T20:23:53.120Z,1.60
2018-05-16T20:26:20.677Z,1.50
2018-05-16T20:28:48.261Z,1.40
2018-05-16T20:31:15.877Z,1.00
2018-05-16T20:33:43.428Z,1.17
2018-05-16T20:36:11.027Z,1.30
2018-05-16T20:38:38.584Z,1.20
2018-05-16T20:41:06.236Z,1.60
2018-05-16T20:43:33.807Z,1.47
2018-05-16T20:46:01.429Z,1.17
2018-05-16T20:48:29.041Z,0.97
2018-05-16T20:50:56.596Z,1.30
2018-05-16T20:53:24.162Z,1.20
2018-05-16T20:55:51.716Z,1.13
2018-05-16T20:58:19.359Z,1.17
2018-05-16T21:00:46.987Z,0.80
2018-05-16T21:03:14.601Z,1.20
2018-05-16T21:05:42.222Z,0.80
2018-05-16T21:08:09.841Z,1.50
2018-05-16T21:10:37.412Z,1.30
2018-05-16T21:13:05.033Z,1.20
2018-05-16T21:15:32.597Z,1.20
2018-05-16T21:18:00.213Z,1.20
2018-05-16T21:20:27.962Z,0.90
2018-05-16T21:22:55.520Z,0.97
2018-05-16T21:25:23.118Z,1.77
2018-05-16T21:27:50.684Z,1.47
2018-05-16T21:30:18.314Z,1.60
2018-05-16T21:32:45.957Z,1.13
2018-05-16T21:35:13.581Z,1.20
2018-05-16T21:37:41.218Z,1.83
2018-05-16T21:40:08.780Z,1.67
2018-05-16T21:42:36.352Z,1.00
2018-05-16T21:45:04.023Z,1.57
2018-05-16T21:47:31.580Z,1.30
2018-05-16T21:49:59.206Z,1.83
2018-05-16T21:52:26.760Z,1.43
2018-05-16T21:54:54.381Z,1.57
2018-05-16T21:57:21.922Z,2.20
2018-05-16T21:59:49.564Z,1.50
2018-05-16T22:02:17.233Z,1.47
2018-05-16T22:04:44.867Z,1.10
2018-05-16T22:07:12.440Z,1.43
2018-05-16T22:09:40.006Z,1.23
2018-05-16T22:12:07.704Z,1.27
2018-05-16T22:14:35.274Z,1.40
2018-05-16T22:17:02.832Z,1.20
2018-05-16T22:19:30.426Z,1.57
2018-05-16T22:21:57.993Z,1.70
2018-05-16T22:24:25.556Z,1.30
2018-05-16T22:26:53.109Z,1.47
2018-05-16T22:29:20.705Z,1.40
2018-05-16T22:31:53.722Z,1.47
2018-05-16T22:34:26.848Z,1.57
2018-05-16T22:36:59.848Z,1.40
2018-05-16T22:39:33.114Z,1.40
2018-05-16T22:42:06.240Z,1.20
2018-05-16T22:44:39.362Z,1.13
2018-05-16T22:47:06.924Z,1.20
2018-05-16T22:49:34.494Z,1.30
2018-05-16T22:52:02.071Z,1.13
2018-05-16T22:54:29.643Z,1.60
2018-05-16T22:56:57.216Z,1.30
2018-05-16T22:59:24.791Z,1.20
2018-05-16T23:01:52.441Z,1.20
2018-05-16T23:04:19.996Z,1.30
2018-05-16T23:06:47.552Z,1.43
2018-05-16T23:09:15.126Z,1.40
2018-05-16T23:11:42.688Z,1.40
2018-05-16T23:14:10.252Z,1.23
2018-05-16T23:16:37.804Z,1.93
2018-05-16T23:19:05.494Z,1.43
2018-05-16T23:21:33.094Z,1.70
2018-05-16T23:24:00.671Z,1.40
2018-05-16T23:26:28.236Z,1.50
2018-05-16T23:28:55.850Z,1.70
2018-05-16T23:31:23.412Z,1.40
2018-05-16T23:33:50.964Z,1.30
2018-05-16T23:36:18.581Z,1.50
2018-05-16T23:38:46.133Z,1.10
2018-05-16T23:41:13.730Z,1.33
2018-05-16T23:43:41.367Z,1.00
2018-05-16T23:46:09.002Z,1.60
2018-05-16T23:48:36.672Z,1.60
2018-05-16T23:51:04.228Z,1.47
2018-05-16T23:53:31.844Z,1.23
2018-05-16T23:55:59.402Z,1.50
2018-05-16T23:58:27.017Z,1.37
